createdAt,value
2022-10-17T00:00:16.483Z,13.40
2022-10-17T00:02:51.100Z,13.40
2022-10-17T00:05:25.392Z,13.40
2022-10-17T00:07:59.136Z,13.30
2022-10-17T00:10:33.369Z,13.50
2022-10-17T00:13:10.263Z,13.50
2022-10-17T00:15:46.972Z,13.50
2022-10-17T00:18:17.408Z,13.20
2022-10-17T00:20:51.186Z,13.20
2022-10-17T00:23:27.675Z,13.50
2022-10-17T00:26:02.842Z,13.40
2022-10-17T00:28:40.144Z,13.40
2022-10-17T00:31:14.586Z,13.20
2022-10-17T00:33:50.286Z,13.40
2022-10-17T00:36:24.717Z,13.30
2022-10-17T00:39:00.433Z,13.20
2022-10-17T00:41:35.990Z,13.10
2022-10-17T00:44:40.926Z,13.20
2022-10-17T00:47:18.798Z,13.20
2022-10-17T00:49:54.135Z,13.30
2022-10-17T00:52:29.625Z,13.20
2022-10-17T00:55:05.695Z,13.10
2022-10-17T00:57:40.203Z,13.10
2022-10-17T01:00:15.550Z,13.10
2022-10-17T01:02:53.168Z,13.10
2022-10-17T01:05:29.658Z,13.10
2022-10-17T01:08:04.459Z,13.20
2022-10-17T01:10:45.681Z,13.00
2022-10-17T01:13:24.572Z,13.10
2022-10-17T01:16:03.378Z,13.10
2022-10-17T01:18:48.103Z,13.20
2022-10-17T01:21:17.441Z,13.00
2022-10-17T01:24:22.308Z,13.00
2022-10-17T01:27:17.109Z,13.00
2022-10-17T01:30:00.838Z,12.90
2022-10-17T01:32:38.856Z,13.00
2022-10-17T01:35:15.169Z,12.90
2022-10-17T01:40:27.800Z,12.90
2022-10-17T01:43:07.990Z,12.90
2022-10-17T01:45:44.125Z,12.90
2022-10-17T01:48:22.341Z,13.10
2022-10-17T01:50:57.027Z,13.00
2022-10-17T01:53:32.967Z,12.80
2022-10-17T01:56:07.624Z,12.80
2022-10-17T01:58:44.360Z,12.70
2022-10-17T02:01:19.215Z,13.00
2022-10-17T02:03:56.121Z,12.70
2022-10-17T02:06:30.180Z,12.80
2022-10-17T02:09:04.185Z,12.60
2022-10-17T02:11:38.070Z,12.90
2022-10-17T02:14:22.264Z,12.50
2022-10-17T02:16:56.318Z,12.50
2022-10-17T02:19:38.177Z,12.40
2022-10-17T02:22:19.902Z,12.40
2022-10-17T02:24:56.088Z,12.40
2022-10-17T02:27:36.887Z,12.40
2022-10-17T02:30:13.768Z,12.40
2022-10-17T02:32:51.137Z,12.40
2022-10-17T02:35:31.452Z,12.40
2022-10-17T02:38:06.833Z,12.40
2022-10-17T02:40:41.181Z,12.40
2022-10-17T02:43:15.307Z,12.40
2022-10-17T02:45:49.108Z,12.40
2022-10-17T02:48:25.575Z,12.60
2022-10-17T02:51:07.525Z,12.60
2022-10-17T02:53:45.785Z,12.60
2022-10-17T02:56:22.688Z,12.30
2022-10-17T02:58:59.191Z,12.30
2022-10-17T03:01:33.141Z,12.30
2022-10-17T03:04:11.272Z,12.30
2022-10-17T03:06:47.772Z,12.30
2022-10-17T03:09:22.163Z,12.30
2022-10-17T03:11:56.022Z,12.30
2022-10-17T03:14:30.145Z,12.50
2022-10-17T03:17:04.403Z,12.30
2022-10-17T03:19:39.009Z,12.20
2022-10-17T03:22:16.496Z,12.20
2022-10-17T03:24:53.158Z,12.10
2022-10-17T03:27:27.448Z,12.30
2022-10-17T03:30:02.153Z,12.30
2022-10-17T03:32:38.312Z,12.10
2022-10-17T03:35:14.868Z,12.20
2022-10-17T03:37:56.369Z,12.10
2022-10-17T03:40:32.047Z,12.40
2022-10-17T03:43:06.081Z,12.10
2022-10-17T03:45:40.281Z,12.10
2022-10-17T03:48:15.195Z,12.00
2022-10-17T03:50:49.290Z,12.10
2022-10-17T03:53:26.443Z,12.10
2022-10-17T03:56:01.505Z,12.00
2022-10-17T03:58:36.262Z,12.00
2022-10-17T04:01:10.514Z,12.00
2022-10-17T04:03:45.538Z,12.00
2022-10-17T04:06:20.450Z,12.10
2022-10-17T04:08:58.484Z,12.00
2022-10-17T04:11:39.425Z,12.00
2022-10-17T04:14:15.425Z,11.90
2022-10-17T04:16:50.564Z,11.90
2022-10-17T04:19:28.739Z,11.90
2022-10-17T04:22:03.412Z,11.90
2022-10-17T04:24:45.321Z,11.90
2022-10-17T04:27:33.646Z,12.00
2022-10-17T04:30:10.472Z,11.80
2022-10-17T04:32:45.161Z,11.80
2022-10-17T04:35:24.466Z,11.80
2022-10-17T04:38:06.016Z,11.80
2022-10-17T04:40:44.045Z,11.70
2022-10-17T04:43:19.848Z,11.80
2022-10-17T04:45:54.032Z,11.80
2022-10-17T04:48:28.773Z,11.70
2022-10-17T04:51:04.697Z,11.80
2022-10-17T04:53:45.744Z,11.70
2022-10-17T04:56:23.853Z,11.70
2022-10-17T04:58:58.357Z,11.80
2022-10-17T05:01:33.528Z,11.70
2022-10-17T05:04:08.758Z,11.90
2022-10-17T05:06:43.406Z,11.70
2022-10-17T05:09:35.196Z,11.70
2022-10-17T05:12:12.416Z,12.00
2022-10-17T05:14:50.330Z,11.70
2022-10-17T05:17:25.478Z,11.70
2022-10-17T05:20:00.572Z,11.70
2022-10-17T05:22:41.996Z,11.70
2022-10-17T05:25:19.292Z,12.00
2022-10-17T05:27:58.491Z,11.70
2022-10-17T05:30:36.888Z,11.70
2022-10-17T05:33:15.756Z,11.70
2022-10-17T05:35:50.451Z,12.10
2022-10-17T05:38:24.368Z,11.80
2022-10-17T05:41:01.439Z,11.80
2022-10-17T05:43:39.614Z,11.90
2022-10-17T05:46:14.368Z,12.40
2022-10-17T05:48:49.125Z,12.50
2022-10-17T05:51:24.318Z,12.60
2022-10-17T05:53:59.200Z,12.60
2022-10-17T05:56:37.669Z,13.10
2022-10-17T05:59:16.412Z,13.00
2022-10-17T06:01:58.272Z,13.20
2022-10-17T06:04:32.328Z,13.50
2022-10-17T06:07:09.060Z,13.60
2022-10-17T06:12:19.226Z,13.90
2022-10-17T06:14:58.069Z,14.00
2022-10-17T06:17:34.793Z,13.80
2022-10-17T06:20:11.703Z,13.80
2022-10-17T06:22:46.429Z,13.80
2022-10-17T06:25:29.464Z,14.00
2022-10-17T06:28:04.682Z,14.20
2022-10-17T06:30:42.635Z,14.50
2022-10-17T06:33:18.251Z,14.80
2022-10-17T06:35:55.310Z,15.10
2022-10-17T06:38:31.652Z,15.40
2022-10-17T06:41:09.878Z,15.80
2022-10-17T06:43:46.819Z,16.20
2022-10-17T06:46:50.588Z,16.60
2022-10-17T06:49:26.487Z,17.00
2022-10-17T06:52:18.040Z,17.40
2022-10-17T06:55:24.623Z,17.60
2022-10-17T06:58:22.797Z,18.00
2022-10-17T07:01:16.355Z,18.30
2022-10-17T07:03:55.786Z,18.50
2022-10-17T07:06:30.659Z,18.70
2022-10-17T07:09:10.535Z,18.90
2022-10-17T07:11:45.984Z,18.90
2022-10-17T07:14:32.544Z,19.10
2022-10-17T07:17:08.753Z,19.20
2022-10-17T07:19:46.768Z,19.20
2022-10-17T07:22:22.156Z,19.50
2022-10-17T07:25:00.839Z,19.60
2022-10-17T07:27:41.384Z,19.80
2022-10-17T07:30:16.171Z,19.90
2022-10-17T07:33:01.800Z,20.00
2022-10-17T07:35:41.213Z,20.30
2022-10-17T07:38:17.075Z,20.40
2022-10-17T07:40:58.003Z,20.60
2022-10-17T07:43:32.790Z,20.60
2022-10-17T07:46:08.757Z,20.70
2022-10-17T07:48:44.570Z,21.00
2022-10-17T07:51:23.498Z,21.20
2022-10-17T07:53:58.991Z,21.30
2022-10-17T07:56:33.943Z,21.40
2022-10-17T07:59:09.528Z,21.80
2022-10-17T08:01:44.100Z,21.70
2022-10-17T08:04:18.804Z,21.80
2022-10-17T08:07:00.654Z,21.70
2022-10-17T08:09:46.439Z,21.70
2022-10-17T08:12:21.230Z,21.70
2022-10-17T08:14:55.672Z,21.60
2022-10-17T08:17:30.919Z,21.30
2022-10-17T08:20:05.810Z,21.80
2022-10-17T08:22:43.518Z,21.90
2022-10-17T08:25:19.008Z,22.00
2022-10-17T08:27:54.341Z,21.90
2022-10-17T08:30:30.910Z,22.00
2022-10-17T08:33:04.675Z,22.20
2022-10-17T08:35:40.063Z,22.40
2022-10-17T08:38:20.968Z,22.80
2022-10-17T08:40:56.815Z,22.90
2022-10-17T08:43:45.475Z,22.90
2022-10-17T08:46:20.953Z,23.00
2022-10-17T08:48:55.934Z,23.00
2022-10-17T08:51:32.553Z,23.00
2022-10-17T08:54:15.788Z,23.20
2022-10-17T08:56:52.989Z,23.20
2022-10-17T08:59:30.957Z,23.40
2022-10-17T09:02:04.763Z,23.40
2022-10-17T09:04:49.262Z,23.60
2022-10-17T09:07:25.567Z,23.60
2022-10-17T09:10:07.641Z,23.70
2022-10-17T09:12:51.002Z,23.80
2022-10-17T09:15:39.190Z,23.90
2022-10-17T09:18:16.692Z,24.00
2022-10-17T09:20:55.691Z,24.00
2022-10-17T09:23:32.855Z,24.10
2022-10-17T09:26:11.382Z,24.10
2022-10-17T09:28:45.559Z,24.20
2022-10-17T09:31:23.410Z,24.40
2022-10-17T09:33:58.867Z,24.70
2022-10-17T09:36:34.473Z,24.70
2022-10-17T09:39:09.612Z,24.70
2022-10-17T09:41:47.590Z,24.60
2022-10-17T09:44:23.302Z,24.80
2022-10-17T09:46:59.682Z,24.90
2022-10-17T09:49:35.918Z,24.90
2022-10-17T09:52:13.970Z,25.00
2022-10-17T09:54:49.481Z,25.00
2022-10-17T09:57:26.642Z,25.10
2022-10-17T10:00:02.579Z,25.10
2022-10-17T10:02:41.056Z,25.10
2022-10-17T10:05:19.494Z,25.10
2022-10-17T10:08:04.845Z,25.00
2022-10-17T10:10:39.490Z,24.90
2022-10-17T10:13:23.412Z,24.80
2022-10-17T10:15:57.528Z,24.90
2022-10-17T10:18:33.676Z,24.90
2022-10-17T10:21:10.895Z,24.90
2022-10-17T10:23:45.534Z,24.90
2022-10-17T10:26:26.246Z,25.00
2022-10-17T10:29:04.816Z,24.90
2022-10-17T10:31:42.534Z,24.80
2022-10-17T10:34:19.444Z,24.80
2022-10-17T10:36:57.001Z,24.80
2022-10-17T10:39:40.289Z,24.90
2022-10-17T10:42:23.920Z,24.90
2022-10-17T10:45:02.453Z,24.90
2022-10-17T10:47:36.300Z,24.90
2022-10-17T10:50:18.756Z,24.90
2022-10-17T10:52:56.438Z,24.90
2022-10-17T10:55:31.656Z,24.90
2022-10-17T10:58:09.713Z,24.80
2022-10-17T11:00:47.073Z,24.80
2022-10-17T11:03:22.707Z,24.80
2022-10-17T11:05:58.690Z,24.80
2022-10-17T11:08:47.506Z,24.80
2022-10-17T11:11:24.170Z,24.80
2022-10-17T11:14:08.804Z,24.80
2022-10-17T11:16:49.629Z,24.60
2022-10-17T11:19:28.572Z,24.60
2022-10-17T11:22:08.637Z,24.50
2022-10-17T11:24:45.469Z,24.50
2022-10-17T11:27:19.421Z,24.50
2022-10-17T11:29:53.473Z,24.60
2022-10-17T11:32:34.064Z,24.60
2022-10-17T11:35:11.870Z,24.60
2022-10-17T11:37:49.815Z,24.60
2022-10-17T11:40:28.400Z,24.60
2022-10-17T11:43:03.540Z,24.60
2022-10-17T11:45:39.372Z,24.60
2022-10-17T11:48:19.349Z,24.50
2022-10-17T11:53:51.613Z,24.60
2022-10-17T11:56:29.779Z,24.50
2022-10-17T11:59:11.266Z,24.60
2022-10-17T12:01:47.684Z,24.50
2022-10-17T12:04:37.662Z,24.50
2022-10-17T12:07:08.637Z,24.50
2022-10-17T12:09:46.352Z,24.40
2022-10-17T12:12:28.578Z,24.40
2022-10-17T12:15:31.931Z,24.40
2022-10-17T12:18:06.718Z,24.40
2022-10-17T12:20:44.233Z,24.40
2022-10-17T12:23:26.126Z,24.40
2022-10-17T12:26:04.813Z,24.40
2022-10-17T12:28:45.357Z,24.40
2022-10-17T12:31:32.504Z,24.40
2022-10-17T12:34:09.168Z,24.40
2022-10-17T12:36:47.394Z,24.40
2022-10-17T12:39:45.553Z,24.40
2022-10-17T12:42:37.390Z,24.50
2022-10-17T12:45:47.758Z,24.50
2022-10-17T12:48:52.981Z,24.60
2022-10-17T12:51:35.852Z,24.60
2022-10-17T12:54:17.687Z,24.60
2022-10-17T12:56:52.458Z,24.80
2022-10-17T12:59:28.912Z,24.70
2022-10-17T13:02:04.806Z,24.70
2022-10-17T13:04:39.689Z,24.70
2022-10-17T13:07:17.281Z,24.70
2022-10-17T13:09:54.371Z,24.70
2022-10-17T13:12:28.913Z,24.70
2022-10-17T13:15:03.504Z,24.70
2022-10-17T13:17:40.679Z,24.70
2022-10-17T13:20:29.014Z,24.70
2022-10-17T13:23:06.137Z,24.70
2022-10-17T13:25:43.596Z,24.70
2022-10-17T13:28:17.453Z,24.60
2022-10-17T13:30:53.673Z,24.70
2022-10-17T13:33:36.127Z,24.80
2022-10-17T13:36:11.828Z,24.70
2022-10-17T13:38:46.533Z,24.70
2022-10-17T13:41:42.046Z,24.70
2022-10-17T13:44:16.834Z,24.60
2022-10-17T13:46:51.737Z,24.60
2022-10-17T13:49:30.269Z,24.60
2022-10-17T13:52:05.439Z,24.60
2022-10-17T13:54:40.740Z,24.60
2022-10-17T13:57:26.143Z,24.60
2022-10-17T14:00:05.133Z,24.60
2022-10-17T14:02:46.635Z,24.60
2022-10-17T14:05:23.544Z,24.60
2022-10-17T14:08:11.357Z,24.50
2022-10-17T14:10:48.047Z,24.50
2022-10-17T14:13:26.636Z,24.50
2022-10-17T14:15:57.893Z,24.50
2022-10-17T14:18:36.403Z,24.50
2022-10-17T14:24:29.359Z,24.40
2022-10-17T14:27:05.010Z,24.40
2022-10-17T14:29:54.993Z,24.30
2022-10-17T14:32:35.081Z,24.30
2022-10-17T14:35:30.654Z,24.30
2022-10-17T14:38:06.150Z,24.20
2022-10-17T14:40:40.416Z,24.20
2022-10-17T14:43:19.881Z,24.10
2022-10-17T14:45:53.471Z,24.10
2022-10-17T14:48:32.242Z,24.10
2022-10-17T14:51:11.048Z,24.00
2022-10-17T14:53:45.650Z,24.00
2022-10-17T14:56:27.839Z,23.90
2022-10-17T14:58:58.849Z,23.90
2022-10-17T15:01:33.423Z,23.80
2022-10-17T15:04:10.989Z,23.80
2022-10-17T15:06:44.499Z,23.80
2022-10-17T15:09:18.545Z,23.70
2022-10-17T15:11:52.446Z,23.70
2022-10-17T15:14:26.624Z,23.70
2022-10-17T15:17:00.524Z,23.60
2022-10-17T15:19:37.879Z,23.60
2022-10-17T15:22:12.391Z,23.60
2022-10-17T15:24:46.440Z,23.40
2022-10-17T15:27:21.617Z,23.40
2022-10-17T15:29:56.749Z,23.30
2022-10-17T15:32:31.357Z,23.30
2022-10-17T15:35:09.751Z,23.20
2022-10-17T15:37:47.064Z,23.20
2022-10-17T15:40:22.439Z,23.10
2022-10-17T15:42:56.498Z,23.00
2022-10-17T15:45:30.873Z,23.00
2022-10-17T15:48:11.220Z,22.90
2022-10-17T15:50:48.956Z,22.90
2022-10-17T15:53:24.390Z,22.70
2022-10-17T15:55:58.772Z,22.70
2022-10-17T15:58:36.855Z,22.70
2022-10-17T16:01:14.699Z,22.70
2022-10-17T16:03:50.659Z,22.50
2022-10-17T16:06:28.717Z,22.40
2022-10-17T16:09:03.572Z,22.40
2022-10-17T16:11:38.521Z,22.30
2022-10-17T16:14:14.392Z,22.20
2022-10-17T16:16:48.288Z,22.10
2022-10-17T16:19:23.271Z,22.10
2022-10-17T16:22:04.320Z,22.00
2022-10-17T16:24:39.285Z,22.00
2022-10-17T16:27:13.487Z,21.90
2022-10-17T16:29:47.230Z,21.90
2022-10-17T16:32:21.232Z,21.80
2022-10-17T16:34:55.401Z,21.70
2022-10-17T16:37:31.974Z,21.60
2022-10-17T16:40:06.376Z,21.60
2022-10-17T16:42:39.460Z,21.60
2022-10-17T16:45:14.156Z,21.50
2022-10-17T16:47:48.378Z,21.40
2022-10-17T16:50:22.829Z,21.30
2022-10-17T16:53:00.048Z,21.30
2022-10-17T16:55:34.396Z,21.20
2022-10-17T16:58:08.322Z,21.10
2022-10-17T17:00:42.347Z,21.00
2022-10-17T17:03:16.298Z,21.00
2022-10-17T17:05:53.384Z,20.90
2022-10-17T17:08:29.878Z,20.90
2022-10-17T17:11:04.172Z,20.90
2022-10-17T17:13:38.358Z,20.80
2022-10-17T17:16:14.563Z,20.70
2022-10-17T17:18:49.402Z,20.70
2022-10-17T17:21:23.232Z,20.60
2022-10-17T17:24:00.728Z,20.50
2022-10-17T17:26:36.182Z,20.50
2022-10-17T17:29:10.984Z,20.60
2022-10-17T17:31:45.244Z,20.40
2022-10-17T17:34:19.247Z,20.30
2022-10-17T17:36:53.269Z,20.20
2022-10-17T17:39:29.907Z,20.20
2022-10-17T17:42:04.587Z,20.20
2022-10-17T17:44:38.298Z,20.10
2022-10-17T17:47:12.796Z,20.10
2022-10-17T17:49:48.509Z,19.90
2022-10-17T17:52:22.764Z,20.00
2022-10-17T17:55:00.910Z,19.90
2022-10-17T17:57:35.552Z,20.00
2022-10-17T18:00:11.011Z,19.90
2022-10-17T18:02:46.221Z,19.90
2022-10-17T18:05:18.964Z,19.80
2022-10-17T18:07:55.852Z,19.80
2022-10-17T18:10:34.342Z,19.70
2022-10-17T18:13:07.679Z,19.70
2022-10-17T18:15:38.802Z,19.60
2022-10-17T18:18:13.640Z,19.60
2022-10-17T18:20:48.238Z,19.60
2022-10-17T18:23:23.115Z,19.60
2022-10-17T18:26:02.288Z,19.50
2022-10-17T18:28:37.594Z,19.50
2022-10-17T18:31:12.240Z,19.40
2022-10-17T18:33:47.080Z,19.40
2022-10-17T18:36:21.881Z,19.40
2022-10-17T18:39:00.461Z,19.30
2022-10-17T18:41:38.567Z,19.20
2022-10-17T18:44:14.012Z,19.20
2022-10-17T18:46:48.309Z,19.10
2022-10-17T18:49:25.523Z,19.10
2022-10-17T18:52:00.869Z,19.00
2022-10-17T18:54:36.719Z,19.00
2022-10-17T18:57:14.531Z,19.00
2022-10-17T18:59:48.951Z,18.90
2022-10-17T19:02:24.012Z,18.90
2022-10-17T19:04:58.682Z,18.80
2022-10-17T19:07:33.545Z,18.80
2022-10-17T19:10:07.961Z,18.70
2022-10-17T19:12:45.094Z,18.70
2022-10-17T19:15:22.474Z,18.60
2022-10-17T19:18:00.623Z,18.60
2022-10-17T19:20:37.197Z,18.50
2022-10-17T19:23:11.647Z,18.50
2022-10-17T19:25:46.141Z,18.40
2022-10-17T19:28:23.489Z,18.30
2022-10-17T19:30:57.584Z,18.30
2022-10-17T19:33:31.370Z,18.10
2022-10-17T19:36:07.758Z,18.10
2022-10-17T19:38:42.645Z,18.30
2022-10-17T19:41:17.270Z,18.20
2022-10-17T19:43:54.805Z,17.90
2022-10-17T19:46:30.369Z,17.90
2022-10-17T19:49:04.630Z,17.80
2022-10-17T19:51:38.942Z,17.70
2022-10-17T19:54:13.496Z,17.60
2022-10-17T19:56:50.261Z,17.60
2022-10-17T19:59:28.694Z,17.50
2022-10-17T20:02:03.189Z,17.50
2022-10-17T20:04:49.474Z,17.40
2022-10-17T20:07:31.893Z,17.40
2022-10-17T20:10:08.929Z,17.40
2022-10-17T20:12:44.413Z,17.40
2022-10-17T20:15:23.173Z,17.30
2022-10-17T20:17:58.066Z,17.30
2022-10-17T20:20:33.286Z,17.50
2022-10-17T20:23:09.168Z,17.30
2022-10-17T20:25:43.564Z,17.20
2022-10-17T20:28:17.641Z,17.20
2022-10-17T20:30:54.418Z,17.30
2022-10-17T20:33:32.036Z,17.20
2022-10-17T20:36:08.316Z,17.00
2022-10-17T20:38:43.250Z,17.00
2022-10-17T20:41:17.723Z,17.00
2022-10-17T20:43:53.644Z,17.00
2022-10-17T20:46:44.310Z,16.90
2022-10-17T20:49:24.148Z,16.80
2022-10-17T20:51:59.171Z,17.00
2022-10-17T20:54:33.823Z,16.80
2022-10-17T20:57:09.664Z,16.70
2022-10-17T20:59:45.787Z,16.80
2022-10-17T21:02:26.491Z,16.80
2022-10-17T21:05:02.633Z,16.70
2022-10-17T21:07:37.869Z,16.90
2022-10-17T21:10:34.514Z,16.60
2022-10-17T21:13:08.085Z,16.60
2022-10-17T21:15:45.573Z,16.50
2022-10-17T21:18:23.646Z,16.50
2022-10-17T21:20:59.085Z,16.40
2022-10-17T21:23:33.996Z,16.70
2022-10-17T21:26:10.290Z,16.40
2022-10-17T21:28:45.600Z,16.40
2022-10-17T21:31:20.780Z,16.30
2022-10-17T21:33:59.212Z,16.40
2022-10-17T21:36:33.444Z,16.30
2022-10-17T21:41:43.591Z,16.30
2022-10-17T21:44:19.641Z,16.20
2022-10-17T21:46:53.796Z,16.40
2022-10-17T21:49:30.686Z,16.30
2022-10-17T21:52:07.444Z,16.10
2022-10-17T21:54:42.170Z,16.30
2022-10-17T21:59:53.158Z,16.40
2022-10-17T22:02:28.401Z,16.30
2022-10-17T22:05:05.684Z,16.20
2022-10-17T22:07:40.306Z,16.20
2022-10-17T22:10:14.603Z,16.20
2022-10-17T22:12:49.281Z,16.10
2022-10-17T22:15:24.044Z,16.10
2022-10-17T22:17:59.389Z,16.00
2022-10-17T22:20:36.941Z,16.10
2022-10-17T22:23:12.204Z,15.90
2022-10-17T22:25:46.977Z,16.10
2022-10-17T22:28:22.029Z,15.80
2022-10-17T22:30:57.411Z,15.80
2022-10-17T22:33:32.466Z,15.80
2022-10-17T22:36:10.514Z,16.00
2022-10-17T22:38:45.112Z,15.80
2022-10-17T22:41:19.872Z,15.80
2022-10-17T22:43:54.698Z,15.80
2022-10-17T22:46:29.112Z,15.80
2022-10-17T22:49:05.815Z,15.80
2022-10-17T22:51:50.010Z,15.70
2022-10-17T22:54:25.191Z,15.70
2022-10-17T22:57:01.791Z,15.80
2022-10-17T22:59:37.098Z,15.80
2022-10-17T23:02:11.601Z,15.60
2022-10-17T23:04:45.817Z,15.50
2022-10-17T23:07:26.258Z,15.50
2022-10-17T23:10:01.204Z,15.40
2022-10-17T23:12:38.077Z,15.40
2022-10-17T23:15:14.370Z,15.30
2022-10-17T23:17:49.600Z,15.20
2022-10-17T23:20:24.039Z,15.10
2022-10-17T23:23:01.641Z,15.10
2022-10-17T23:25:38.964Z,15.00
2022-10-17T23:28:13.592Z,15.00
2022-10-17T23:30:48.101Z,15.00
2022-10-17T23:33:23.029Z,14.90
2022-10-17T23:35:57.581Z,14.90
2022-10-17T23:38:37.284Z,15.00
2022-10-17T23:41:11.403Z,14.90
2022-10-17T23:43:45.663Z,14.90
2022-10-17T23:46:20.240Z,15.00
2022-10-17T23:48:57.003Z,15.10
2022-10-17T23:51:32.163Z,14.80
2022-10-17T23:54:10.011Z,14.80
2022-10-17T23:56:46.173Z,14.60
2022-10-17T23:59:21.961Z,14.70
